Terminal Aerodrome Forecast
Issued by NWS

Home | Current Version | Previous Version | Text Only | Print | Product List | Glossary On
Versions: 1 2 3 4 5 6 7 8 9 10 11 12 13 14 15 16 17 18 19 20 21 22 23
000
FTPA31 PHFO 271700
TAFJHM
TAF
PHJH 271732Z 2718/2818 02015G25KT 6SM -RA SCT015 BKN035
      TEMPO 2718/2720 BKN020
     FM272000 04018G28KT P6SM VCSH SCT015 BKN035
     FM280500 04014KT P6SM VCSH SCT015 BKN035
      AMD NOT SKED AFT 280400=

USA.gov is the U.S. government's official web portal to all federal, state and local government web resources and services.